Kezdőlap
METAR-TAF:

METAR-TAF

Repülőterek :

Thomas County Airport

Thedford, Nebraska, Amerikai Egyesült Államok

földrajzi szélesség: 41-57-43N, földrajzi hosszúság: 100-34-08W, magasság: 892 m

Jelenlegi meteorológiai megfigyelések

A jelentés 17 perccel ezelõtt készült, 04:55 UTC
Kelet-délkeleti szél 3 kt
Hőmérséklet 21°C
Páratartalom 73%
Légköri nyomás 1011 hPa
Látótávolság: 16.1 km
Derült ég

METAR: KTIF 130455Z AUTO 12003KT 10SM CLR 21/16 A2985 RMK AO2 T02120162

Idő: 00:12 (05:12 UTC)


TAF: hiányzik

Meteorológiai megfigyelések és előrejelzések több, mint 4000 repülőtéren (METAR és TAF jelentéseket).

A térképen piros és sárga pontok jelzik az elérhető meteorológiai állomásokat.

Mozgassa az egeret a pont fölött, hogy megjelenjen az állomás neve.

Azután kattintson az időjárási megfigyelések és előrejelzések megtekintéséhez.

A térkép megváltoztatása: kattintson a fekete keresztel jelölt zöld gombra ráközelítéshez, a vonallal jelölt zöld gombra távolításhoz, vagy a zöld nyilakra a szomszédos térképek eléréséhez.


METAR-TAF: